Time;durP1;ratioP1;P1;durP2;ratioP2;P2;SDS_P1;SDS_P2;PMS_P1;PMS_P2;Temp;Humidity;BMP_temperature;BMP_pressure;BME280_temperature;BME280_humidity;BME280_pressure;Samples;Min_cycle;Max_cycle;Signal;HPM_P1;HPM_P2
2021/06/30 00:00:25;;;;;;;3.10;2.90;;;26.60;87.30;;;;;;6216865;23;20413;-92
2021/06/30 00:02:52;;;;;;;2.50;2.40;;;26.80;87.50;;;;;;6216887;23;20398;-93
2021/06/30 00:05:19;;;;;;;2.50;2.40;;;26.60;87.30;;;;;;6216834;23;20416;-92
2021/06/30 00:07:46;;;;;;;2.63;2.53;;;26.60;87.30;;;;;;6216486;23;20882;-92
2021/06/30 00:10:13;;;;;;;5.17;2.70;;;26.60;87.30;;;;;;6216752;23;20497;-91
2021/06/30 00:12:40;;;;;;;2.10;2.00;;;26.60;87.30;;;;;;6216657;23;20916;-92
2021/06/30 00:15:10;;;;;;;2.43;2.33;;;26.60;87.30;;;;;;6216938;23;20404;-93
2021/06/30 00:17:38;;;;;;;2.57;2.47;;;26.60;87.20;;;;;;6217431;23;20898;-92
2021/06/30 00:20:07;;;;;;;2.50;2.30;;;26.60;87.20;;;;;;6216565;23;20413;-93
2021/06/30 00:22:34;;;;;;;2.40;2.30;;;26.60;87.20;;;;;;6216498;23;20442;-92
2021/06/30 00:25:01;;;;;;;2.50;2.37;;;26.60;87.20;;;;;;6216707;23;20417;-93
2021/06/30 00:27:28;;;;;;;2.10;2.00;;;26.60;87.10;;;;;;6216908;23;20493;-93
2021/06/30 00:29:55;;;;;;;2.80;2.60;;;26.60;87.10;;;;;;6216676;23;20760;-92
2021/06/30 00:32:21;;;;;;;2.20;2.10;;;26.60;87.10;;;;;;6216944;23;20408;-93
2021/06/30 00:34:50;;;;;;;2.97;2.77;;;26.60;87.10;;;;;;6216648;23;20412;-93
2021/06/30 00:37:17;;;;;;;2.63;2.43;;;26.60;87.20;;;;;;6216943;23;20497;-93
2021/06/30 00:39:43;;;;;;;2.97;2.77;;;26.60;87.10;;;;;;6216472;23;20412;-92
2021/06/30 00:42:10;;;;;;;3.17;2.97;;;26.60;87.10;;;;;;6216757;23;20444;-93
2021/06/30 00:44:37;;;;;;;2.27;2.17;;;26.60;87.10;;;;;;6216766;23;20708;-93
2021/06/30 00:47:04;;;;;;;2.30;2.20;;;26.60;87.10;;;;;;6216619;23;20488;-93
2021/06/30 00:49:31;;;;;;;2.47;2.37;;;26.60;87.10;;;;;;6216920;23;20428;-92
2021/06/30 00:51:59;;;;;;;2.50;2.40;;;26.60;87.10;;;;;;6216497;23;20412;-93
2021/06/30 00:54:26;;;;;;;2.10;2.00;;;26.60;87.10;;;;;;6216758;23;20489;-92
2021/06/30 00:56:53;;;;;;;2.80;2.60;;;26.60;87.10;;;;;;6216817;23;20872;-91
2021/06/30 00:59:20;;;;;;;2.40;2.30;;;26.60;87.10;;;;;;6216891;23;20428;-93
2021/06/30 01:01:47;;;;;;;3.10;2.90;;;26.60;87.00;;;;;;6216683;23;20850;-93
2021/06/30 01:04:14;;;;;;;2.73;2.63;;;26.60;87.10;;;;;;6216619;23;20488;-93
2021/06/30 01:06:41;;;;;;;3.10;2.90;;;26.60;87.00;;;;;;6216724;23;20413;-93
2021/06/30 01:09:09;;;;;;;3.37;3.17;;;26.60;87.00;;;;;;6216482;23;20411;-93
2021/06/30 01:11:36;;;;;;;3.10;2.90;;;26.60;86.90;;;;;;6216373;23;20412;-92
2021/06/30 01:14:03;;;;;;;2.77;2.57;;;26.70;87.00;;;;;;6216220;23;20448;-93
2021/06/30 01:16:31;;;;;;;3.00;2.90;;;26.60;86.90;;;;;;6217183;23;20410;-93
2021/06/30 01:18:58;;;;;;;2.60;2.50;;;26.60;86.90;;;;;;6216888;23;20787;-93
2021/06/30 01:21:25;;;;;;;2.63;2.47;;;26.50;86.70;;;;;;6216195;23;20470;-93
2021/06/30 01:23:53;;;;;;;3.40;3.20;;;26.60;86.90;;;;;;6216537;23;20445;-93
2021/06/30 01:26:20;;;;;;;3.20;3.00;;;26.70;86.90;;;;;;6216236;23;20410;-93
2021/06/30 01:28:47;;;;;;;3.10;2.90;;;26.60;86.80;;;;;;6216232;23;20925;-93
2021/06/30 01:31:14;;;;;;;2.90;2.77;;;26.50;86.70;;;;;;6216309;23;20408;-92
2021/06/30 01:33:41;;;;;;;2.67;2.57;;;26.60;86.80;;;;;;6216644;23;20401;-93
2021/06/30 01:36:08;;;;;;;3.23;3.10;;;26.50;86.70;;;;;;6216209;23;20489;-92
2021/06/30 01:38:35;;;;;;;2.80;2.70;;;26.50;86.70;;;;;;6216323;23;20409;-93
2021/06/30 01:41:03;;;;;;;2.63;2.53;;;26.50;86.70;;;;;;6216122;23;20408;-93
2021/06/30 01:43:30;;;;;;;2.80;2.70;;;26.50;86.60;;;;;;6216450;23;20415;-93
2021/06/30 01:45:58;;;;;;;2.93;2.73;;;26.70;86.80;;;;;;6216354;23;20731;-93
2021/06/30 01:48:25;;;;;;;2.90;2.70;;;26.50;86.60;;;;;;6216563;23;20401;-92
2021/06/30 01:50:54;;;;;;;2.10;2.00;;;26.50;86.60;;;;;;6216073;23;20486;-93
2021/06/30 01:53:22;;;;;;;2.23;2.13;;;26.50;86.60;;;;;;6216184;23;20718;-93
2021/06/30 01:55:49;;;;;;;2.23;2.13;;;26.50;86.60;;;;;;6217478;23;20401;-93
2021/06/30 01:58:21;;;;;;;2.07;1.97;;;26.50;86.60;;;;;;6217955;23;20501;-93
2021/06/30 02:00:50;;;;;;;2.20;2.10;;;26.60;86.70;;;;;;6217914;23;20477;-93
2021/06/30 02:03:17;;;;;;;2.20;2.10;;;26.60;86.70;;;;;;6218412;23;20459;-93
2021/06/30 02:05:44;;;;;;;2.07;1.97;;;26.60;86.70;;;;;;6217933;23;20419;-93
2021/06/30 02:08:11;;;;;;;1.90;1.80;;;26.50;86.60;;;;;;6218658;23;20401;-92
2021/06/30 02:10:38;;;;;;;1.97;1.87;;;26.50;86.60;;;;;;6218351;23;20496;-93
2021/06/30 02:13:06;;;;;;;2.03;1.93;;;26.50;86.60;;;;;;6217740;23;20445;-93
2021/06/30 02:15:38;;;;;;;2.10;2.00;;;26.50;86.60;;;;;;6218421;23;20441;-93
2021/06/30 02:18:06;;;;;;;2.07;1.97;;;26.50;86.60;;;;;;6218761;23;20402;-92
2021/06/30 02:20:33;;;;;;;2.40;2.30;;;26.50;86.50;;;;;;6217721;23;20408;-92
2021/06/30 02:23:00;;;;;;;2.07;1.97;;;26.50;86.50;;;;;;6217582;23;20441;-93
2021/06/30 02:25:29;;;;;;;2.30;2.20;;;26.50;86.50;;;;;;6218326;23;20781;-93
2021/06/30 02:27:56;;;;;;;2.20;2.10;;;26.50;87.30;;;;;;6217558;23;20764;-93
2021/06/30 02:30:26;;;;;;;1.93;1.83;;;26.60;86.60;;;;;;6217902;23;20421;-93
2021/06/30 02:32:56;;;;;;;2.10;2.00;;;26.50;86.50;;;;;;6218286;23;20873;-93
2021/06/30 02:35:24;;;;;;;2.10;2.00;;;26.50;86.50;;;;;;6217814;23;20864;-92
2021/06/30 02:37:53;;;;;;;1.80;1.70;;;26.50;86.50;;;;;;6217809;23;20405;-92
2021/06/30 02:40:23;;;;;;;2.60;2.40;;;26.50;86.40;;;;;;6217698;23;20409;-92
2021/06/30 02:42:50;;;;;;;2.07;1.97;;;26.50;86.40;;;;;;6217964;23;20448;-93
2021/06/30 02:45:18;;;;;;;2.30;2.20;;;26.50;86.40;;;;;;6218011;23;20437;-93
2021/06/30 02:47:47;;;;;;;1.97;1.87;;;26.50;86.40;;;;;;6217513;23;20410;-93
2021/06/30 02:50:18;;;;;;;2.20;2.10;;;26.50;86.40;;;;;;6217999;23;20797;-92
2021/06/30 02:52:46;;;;;;;1.97;1.87;;;26.50;86.40;;;;;;6218915;23;20400;-92
2021/06/30 02:55:14;;;;;;;2.00;1.90;;;26.50;86.40;;;;;;6217731;23;20416;-93
2021/06/30 02:57:42;;;;;;;2.10;2.00;;;26.60;86.50;;;;;;6217735;23;20460;-93
2021/06/30 03:00:11;;;;;;;2.30;2.20;;;26.50;86.40;;;;;;6218053;23;20735;-93
2021/06/30 03:02:38;;;;;;;2.23;2.13;;;26.50;86.30;;;;;;6217458;23;20937;-93
2021/06/30 03:05:06;;;;;;;2.30;2.20;;;26.50;86.40;;;;;;6217475;23;20410;-93
2021/06/30 03:07:35;;;;;;;2.37;2.27;;;26.50;86.30;;;;;;6216792;23;20402;-92
2021/06/30 03:10:02;;;;;;;2.23;2.13;;;26.50;86.30;;;;;;6218918;23;20405;-92
2021/06/30 03:12:28;;;;;;;2.30;2.20;;;26.60;86.40;;;;;;6191665;23;20762;-93
2021/06/30 03:14:55;;;;;;;2.40;2.30;;;26.50;86.30;;;;;;6218069;23;20402;-92
2021/06/30 03:17:22;;;;;;;2.63;2.50;;;26.50;86.40;;;;;;6217814;23;20414;-92
2021/06/30 03:19:49;;;;;;;2.10;2.00;;;26.50;86.40;;;;;;6217157;23;20869;-93
2021/06/30 03:22:16;;;;;;;2.70;2.50;;;26.50;86.30;;;;;;6217201;23;20456;-93
2021/06/30 03:24:44;;;;;;;2.70;2.53;;;26.50;86.30;;;;;;6217749;23;20877;-92
2021/06/30 03:27:11;;;;;;;2.60;2.50;;;26.50;86.40;;;;;;6217741;23;20489;-93
2021/06/30 03:29:38;;;;;;;2.40;2.30;;;26.50;86.30;;;;;;6217341;23;20501;-92
2021/06/30 03:32:05;;;;;;;2.40;2.30;;;26.50;86.30;;;;;;6217254;23;20885;-92
2021/06/30 03:34:32;;;;;;;1.90;1.80;;;26.50;86.30;;;;;;6217362;23;20814;-93
2021/06/30 03:36:59;;;;;;;2.50;2.40;;;26.50;86.30;;;;;;6217323;23;20410;-92
2021/06/30 03:39:26;;;;;;;2.33;2.23;;;26.50;86.20;;;;;;6216987;23;20382;-93
2021/06/30 03:41:54;;;;;;;2.23;2.13;;;26.60;86.30;;;;;;6216721;23;20433;-92
2021/06/30 03:44:21;;;;;;;2.73;2.53;;;26.50;86.20;;;;;;6217203;23;20424;-93
2021/06/30 03:46:49;;;;;;;2.70;2.60;;;26.50;86.20;;;;;;6217366;23;20412;-93
2021/06/30 03:49:16;;;;;;;2.40;2.20;;;26.50;86.20;;;;;;6217512;23;20460;-93
2021/06/30 03:51:43;;;;;;;2.10;2.00;;;26.50;86.20;;;;;;6216854;23;20418;-93
2021/06/30 03:54:11;;;;;;;2.10;2.00;;;26.50;86.20;;;;;;6216949;23;20416;-93
2021/06/30 03:56:38;;;;;;;2.00;1.83;;;26.50;86.20;;;;;;6216760;23;20409;-92
2021/06/30 03:59:06;;;;;;;2.30;2.10;;;26.60;86.30;;;;;;6217296;23;20422;-93
2021/06/30 04:01:33;;;;;;;2.30;2.20;;;26.50;86.10;;;;;;6216977;23;20406;-93
2021/06/30 04:04:01;;;;;;;2.10;2.00;;;26.50;86.20;;;;;;6217058;23;20449;-93
2021/06/30 04:06:28;;;;;;;2.13;2.03;;;26.50;86.20;;;;;;6218233;23;20410;-92
2021/06/30 04:08:55;;;;;;;2.10;2.00;;;26.50;86.10;;;;;;6217336;23;20406;-93
2021/06/30 04:11:22;;;;;;;2.10;2.00;;;26.50;86.20;;;;;;6216923;23;20915;-93
2021/06/30 04:13:48;;;;;;;2.27;2.07;;;26.50;86.20;;;;;;6217070;23;20577;-93
2021/06/30 04:16:17;;;;;;;2.30;2.20;;;26.50;86.10;;;;;;6216628;23;20416;-93
2021/06/30 04:18:44;;;;;;;2.40;2.20;;;26.50;86.20;;;;;;6216343;23;20493;-93
2021/06/30 04:21:10;;;;;;;2.03;1.93;;;26.50;86.10;;;;;;6217257;23;20496;-93
2021/06/30 04:23:37;;;;;;;2.27;2.07;;;26.50;86.10;;;;;;6217053;23;20455;-92
2021/06/30 04:26:04;;;;;;;1.90;1.80;;;26.50;86.10;;;;;;6216282;23;20410;-91
2021/06/30 04:28:31;;;;;;;1.97;1.87;;;26.50;86.10;;;;;;6216568;23;20938;-93
2021/06/30 04:30:58;;;;;;;2.03;1.93;;;26.50;86.10;;;;;;6217148;23;20414;-93
2021/06/30 04:33:26;;;;;;;1.83;1.73;;;26.50;86.10;;;;;;6216648;23;20420;-91
2021/06/30 04:35:53;;;;;;;1.83;1.73;;;26.50;86.10;;;;;;6217127;23;20518;-92
2021/06/30 04:38:21;;;;;;;1.97;1.87;;;26.40;86.00;;;;;;6216630;23;20405;-93
2021/06/30 04:40:48;;;;;;;4.43;4.13;;;26.40;86.00;;;;;;6217032;23;20440;-92
2021/06/30 04:43:15;;;;;;;4.57;4.17;;;26.40;85.70;;;;;;6216696;23;20452;-93
2021/06/30 04:45:42;;;;;;;4.73;4.30;;;26.40;84.00;;;;;;6216771;23;20408;-92
2021/06/30 04:48:08;;;;;;;6.10;4.50;;;26.30;83.30;;;;;;6216696;23;20489;-93
2021/06/30 04:50:37;;;;;;;4.80;4.40;;;26.30;83.30;;;;;;6216763;23;20406;-92
2021/06/30 04:53:03;;;;;;;4.53;4.20;;;26.20;83.20;;;;;;6216888;23;20430;-93
2021/06/30 04:55:30;;;;;;;4.23;3.93;;;26.20;83.20;;;;;;6216654;23;20405;-92
2021/06/30 04:57:57;;;;;;;5.40;5.00;;;26.20;83.50;;;;;;6216586;23;20422;-93
2021/06/30 05:00:24;;;;;;;4.90;4.50;;;26.10;83.50;;;;;;6216938;23;20412;-92
2021/06/30 05:02:51;;;;;;;6.30;4.83;;;26.10;83.70;;;;;;6216562;23;20445;-93
2021/06/30 05:05:18;;;;;;;5.80;5.30;;;26.10;83.80;;;;;;6216560;23;20892;-93
2021/06/30 05:07:46;;;;;;;5.40;4.90;;;26.10;83.80;;;;;;6216679;23;20491;-93
2021/06/30 05:10:13;;;;;;;5.00;4.70;;;26.00;84.00;;;;;;6216344;23;20440;-92
2021/06/30 05:12:39;;;;;;;6.17;5.63;;;26.00;84.10;;;;;;6216531;23;20440;-92
2021/06/30 05:15:07;;;;;;;5.43;5.03;;;26.00;84.10;;;;;;6216605;23;20908;-93
2021/06/30 05:17:34;;;;;;;5.10;4.63;;;26.00;84.30;;;;;;6216451;23;20412;-91
2021/06/30 05:20:00;;;;;;;5.40;4.90;;;26.00;84.40;;;;;;6215822;23;20489;-91
2021/06/30 05:22:27;;;;;;;6.87;5.30;;;26.00;84.40;;;;;;6215892;23;20437;-92
2021/06/30 05:24:55;;;;;;;4.90;4.50;;;25.90;84.50;;;;;;6216070;23;20414;-92
2021/06/30 05:27:22;;;;;;;5.50;5.03;;;26.00;84.50;;;;;;6216031;23;20444;-92
2021/06/30 05:29:49;;;;;;;4.60;4.30;;;26.00;84.40;;;;;;6216351;23;20756;-92
2021/06/30 05:32:16;;;;;;;5.60;5.20;;;25.90;84.00;;;;;;6218682;23;20407;-92
2021/06/30 05:34:43;;;;;;;4.50;4.10;;;26.00;84.20;;;;;;6218578;23;20398;-92
2021/06/30 05:37:10;;;;;;;6.27;5.77;;;26.00;84.30;;;;;;6218069;23;20456;-90
2021/06/30 05:39:36;;;;;;;6.27;5.67;;;25.90;84.00;;;;;;6217624;23;20738;-90
2021/06/30 05:42:05;;;;;;;6.10;5.63;;;25.80;83.70;;;;;;6218177;23;20405;-90
2021/06/30 05:44:32;;;;;;;6.60;6.00;;;25.80;84.00;;;;;;6217988;23;20454;-90
2021/06/30 05:46:58;;;;;;;6.90;6.30;;;25.80;84.00;;;;;;6217085;23;20896;-91
2021/06/30 05:49:25;;;;;;;6.43;5.57;;;25.70;84.20;;;;;;6215827;23;20416;-90
2021/06/30 05:51:52;;;;;;;5.97;5.33;;;25.70;83.90;;;;;;6217238;23;20892;-90
2021/06/30 05:54:19;;;;;;;5.83;5.33;;;25.70;83.40;;;;;;6217678;23;20880;-90
2021/06/30 05:56:46;;;;;;;5.47;4.90;;;25.70;83.60;;;;;;6217064;23;20434;-90
2021/06/30 05:59:14;;;;;;;5.13;4.50;;;25.60;83.80;;;;;;6217414;23;20434;-90
2021/06/30 06:01:41;;;;;;;3.40;3.20;;;25.70;84.20;;;;;;6205322;23;20413;-90
2021/06/30 06:04:08;;;;;;;3.57;3.27;;;25.70;84.60;;;;;;6217908;23;20767;-90
2021/06/30 06:06:34;;;;;;;3.30;3.00;;;25.70;84.80;;;;;;6217639;23;20408;-90
2021/06/30 06:09:01;;;;;;;3.30;2.80;;;25.70;84.90;;;;;;6218203;23;20876;-90
2021/06/30 06:11:28;;;;;;;3.07;2.80;;;25.90;85.10;;;;;;6217504;23;20402;-90
2021/06/30 06:13:55;;;;;;;2.53;2.33;;;25.90;84.90;;;;;;6217124;23;20437;-90
2021/06/30 06:16:23;;;;;;;2.80;2.60;;;25.90;84.70;;;;;;6218480;23;20496;-90
2021/06/30 06:18:50;;;;;;;2.90;2.70;;;25.90;84.80;;;;;;6217449;23;20920;-90
2021/06/30 06:21:17;;;;;;;3.67;2.70;;;26.00;84.80;;;;;;6217446;23;20409;-90
2021/06/30 06:23:44;;;;;;;2.90;2.40;;;26.10;84.90;;;;;;6217315;23;20940;-90
2021/06/30 06:26:12;;;;;;;4.47;2.00;;;26.00;84.80;;;;;;6217585;23;20410;-90
2021/06/30 06:28:39;;;;;;;1.90;1.80;;;26.00;84.70;;;;;;6217360;23;20812;-90
2021/06/30 06:31:09;;;;;;;4.23;2.60;;;26.10;84.70;;;;;;6217798;23;20509;-90
2021/06/30 06:33:38;;;;;;;2.13;2.03;;;26.10;84.80;;;;;;6217408;23;20760;-90
2021/06/30 06:36:06;;;;;;;2.30;2.00;;;26.10;84.90;;;;;;6216059;23;20401;-90
2021/06/30 06:38:33;;;;;;;22.03;2.60;;;26.10;85.00;;;;;;6216170;23;20425;-90
2021/06/30 06:41:00;;;;;;;2.30;2.10;;;26.10;84.80;;;;;;6215768;23;20408;-89
2021/06/30 06:43:27;;;;;;;2.23;1.90;;;26.10;84.90;;;;;;6215645;23;20611;-90
2021/06/30 06:45:53;;;;;;;3.77;1.80;;;26.20;84.90;;;;;;6215753;23;20410;-90
2021/06/30 06:48:20;;;;;;;2.60;2.40;;;26.20;84.80;;;;;;6215425;23;20402;-90
2021/06/30 06:50:49;;;;;;;2.70;2.50;;;26.20;84.80;;;;;;6216015;23;20431;-90
2021/06/30 06:53:15;;;;;;;5.60;2.17;;;26.20;84.60;;;;;;6215337;23;20417;-90
2021/06/30 06:55:42;;;;;;;3.20;2.70;;;26.20;84.40;;;;;;6215667;23;20481;-90
2021/06/30 06:58:09;;;;;;;2.97;2.20;;;26.10;84.40;;;;;;6215975;23;20440;-90
2021/06/30 07:00:37;;;;;;;8.10;2.70;;;26.10;84.50;;;;;;6215994;23;20436;-90
2021/06/30 07:03:03;;;;;;;8.70;3.07;;;26.10;84.60;;;;;;6216923;23;20953;-88
2021/06/30 07:05:30;;;;;;;3.33;2.70;;;26.10;84.70;;;;;;6216867;23;20477;-88
2021/06/30 07:07:59;;;;;;;5.20;2.80;;;26.10;85.00;;;;;;6215748;23;20746;-87
2021/06/30 07:10:26;;;;;;;2.87;2.30;;;26.10;85.10;;;;;;6215242;23;20488;-87
2021/06/30 07:12:53;;;;;;;3.97;2.50;;;26.10;85.10;;;;;;6215318;23;20564;-87
2021/06/30 07:15:19;;;;;;;44.40;6.17;;;26.10;85.10;;;;;;6216457;23;20441;-88
2021/06/30 07:17:46;;;;;;;6.77;2.80;;;26.10;84.90;;;;;;6215057;23;20444;-87
2021/06/30 07:20:13;;;;;;;3.30;2.90;;;26.10;83.70;;;;;;6215229;23;20491;-88
2021/06/30 07:22:40;;;;;;;4.47;3.10;;;26.10;83.60;;;;;;6217014;23;20417;-92
2021/06/30 07:25:09;;;;;;;3.87;2.93;;;26.00;84.10;;;;;;6217058;23;20503;-91
2021/06/30 07:27:36;;;;;;;4.17;3.30;;;26.00;84.30;;;;;;6216985;23;20403;-92
2021/06/30 07:30:06;;;;;;;2.90;2.23;;;25.90;84.40;;;;;;6216530;23;20406;-92
2021/06/30 07:35:55;;;;;;;3.40;2.47;;;25.90;84.60;;;;;;6217640;23;20835;-91
2021/06/30 07:38:22;;;;;;;3.50;2.50;;;25.80;85.00;;;;;;6216612;23;20740;-93
2021/06/30 07:40:51;;;;;;;2.77;2.57;;;25.90;85.40;;;;;;6217576;23;20477;-92
2021/06/30 07:43:18;;;;;;;3.30;3.00;;;25.90;85.20;;;;;;6218836;23;20450;-94
2021/06/30 07:45:45;;;;;;;4.17;2.67;;;25.90;85.00;;;;;;6217245;23;20488;-94
2021/06/30 07:48:11;;;;;;;4.77;3.20;;;25.90;84.90;;;;;;6217250;23;20415;-93
2021/06/30 07:50:43;;;;;;;3.13;2.83;;;25.90;84.80;;;;;;6217955;23;20432;-92
2021/06/30 07:53:10;;;;;;;3.70;3.20;;;25.90;85.10;;;;;;6217666;23;20436;-88
2021/06/30 07:55:37;;;;;;;3.87;3.10;;;25.90;85.20;;;;;;6217005;23;20405;-90
2021/06/30 07:58:06;;;;;;;5.20;3.17;;;25.90;85.40;;;;;;6216609;23;20519;-90
2021/06/30 08:00:32;;;;;;;3.33;3.10;;;25.90;85.30;;;;;;6216357;23;20891;-90
2021/06/30 08:02:59;;;;;;;3.53;3.23;;;26.00;85.60;;;;;;6216834;23;20447;-90
2021/06/30 08:05:26;;;;;;;4.37;3.07;;;25.90;86.10;;;;;;6216837;23;20413;-89
2021/06/30 08:07:53;;;;;;;6.83;3.23;;;25.90;85.90;;;;;;6216467;23;20416;-90
2021/06/30 08:10:20;;;;;;;4.30;3.00;;;25.90;85.90;;;;;;6216937;23;20406;-94
2021/06/30 08:12:47;;;;;;;3.40;3.20;;;25.90;85.80;;;;;;6216874;23;20468;-94
2021/06/30 08:15:15;;;;;;;3.17;2.90;;;25.90;86.10;;;;;;6218161;23;20488;-94
2021/06/30 08:17:45;;;;;;;2.90;2.70;;;26.00;86.40;;;;;;6217776;23;20864;-94
2021/06/30 08:20:12;;;;;;;5.00;3.20;;;26.00;86.30;;;;;;6216487;23;20416;-93
2021/06/30 08:22:39;;;;;;;5.40;2.73;;;26.00;86.30;;;;;;6216321;23;20419;-93
2021/06/30 08:25:07;;;;;;;5.67;2.20;;;26.10;86.90;;;;;;6216454;23;20445;-90
2021/06/30 08:27:34;;;;;;;3.30;2.90;;;26.00;87.00;;;;;;6216236;23;20483;-91
2021/06/30 08:30:02;;;;;;;3.50;2.57;;;26.00;87.20;;;;;;6216276;23;20519;-91
2021/06/30 08:32:30;;;;;;;2.60;2.40;;;26.10;87.40;;;;;;6215959;23;20445;-91
2021/06/30 08:34:57;;;;;;;2.83;2.57;;;26.10;87.50;;;;;;6216537;23;20434;-93
2021/06/30 08:37:25;;;;;;;2.87;1.93;;;26.10;88.40;;;;;;6216434;23;20477;-94
2021/06/30 08:39:54;;;;;;;2.53;2.30;;;26.10;87.50;;;;;;6216017;23;20477;-94
2021/06/30 08:42:22;;;;;;;2.73;2.30;;;26.10;86.90;;;;;;6214706;23;20464;-91
2021/06/30 08:44:49;;;;;;;4.40;2.70;;;26.10;86.50;;;;;;6215849;23;20453;-89
2021/06/30 08:47:16;;;;;;;2.90;1.97;;;26.20;86.40;;;;;;6216168;23;20416;-90
2021/06/30 08:49:45;;;;;;;3.03;2.10;;;26.20;86.30;;;;;;6215739;23;20416;-89
2021/06/30 08:52:12;;;;;;;2.50;2.30;;;26.20;86.00;;;;;;6216164;23;20839;-90
2021/06/30 08:54:42;;;;;;;6.07;2.37;;;26.20;85.90;;;;;;6216020;23;20935;-92
2021/06/30 08:57:10;;;;;;;5.40;2.17;;;26.20;85.90;;;;;;6217194;23;20412;-91
2021/06/30 08:59:37;;;;;;;4.50;2.30;;;26.30;85.90;;;;;;6218451;23;20807;-87
2021/06/30 09:02:05;;;;;;;4.43;4.03;;;26.30;85.80;;;;;;6217984;23;20405;-88
2021/06/30 09:04:32;;;;;;;5.80;3.03;;;26.30;85.80;;;;;;6225694;23;20446;-96
2021/06/30 09:07:00;;;;;;;3.63;2.93;;;26.40;86.00;;;;;;6222705;23;20441;-91
2021/06/30 09:09:27;;;;;;;3.37;2.20;;;26.30;85.80;;;;;;6216577;23;20485;-89
2021/06/30 09:11:56;;;;;;;8.50;3.10;;;26.30;85.80;;;;;;6216185;23;20503;-90
2021/06/30 09:14:25;;;;;;;6.60;3.53;;;26.30;86.00;;;;;;6218710;23;20910;-95
2021/06/30 09:17:14;;;;;;;4.03;3.73;;;26.30;86.00;;;;;;6216514;23;20793;-93
2021/06/30 09:19:54;;;;;;;5.20;4.10;;;26.30;85.80;;;;;;6189837;23;20436;-92
2021/06/30 09:22:25;;;;;;;4.97;3.80;;;26.40;86.10;;;;;;6217090;23;20436;-90
2021/06/30 09:24:52;;;;;;;4.53;4.13;;;26.40;86.20;;;;;;6216780;23;20440;-90
2021/06/30 09:27:36;;;;;;;4.37;4.07;;;26.40;86.30;;;;;;6216332;23;20409;-91
2021/06/30 09:30:05;;;;;;;3.70;3.40;;;26.40;85.60;;;;;;6216210;23;20405;-91
2021/06/30 09:32:34;;;;;;;5.00;3.70;;;26.40;85.20;;;;;;6215217;23;20400;-91
2021/06/30 09:35:19;;;;;;;4.10;3.90;;;26.40;84.70;;;;;;6216110;23;20400;-92
2021/06/30 09:37:48;;;;;;;4.87;3.90;;;26.50;84.60;;;;;;6217152;23;20471;-93
2021/06/30 09:40:16;;;;;;;4.07;3.77;;;26.40;84.80;;;;;;6216574;23;20479;-92
2021/06/30 09:42:44;;;;;;;4.80;4.00;;;26.40;85.00;;;;;;6216503;23;20412;-93
2021/06/30 09:45:13;;;;;;;4.20;3.33;;;26.40;85.20;;;;;;6216909;23;20449;-92
2021/06/30 09:47:45;;;;;;;3.67;3.43;;;26.40;85.40;;;;;;6216758;23;20408;-94
2021/06/30 09:50:12;;;;;;;5.17;4.83;;;26.40;85.30;;;;;;6217139;23;20406;-91
2021/06/30 09:52:41;;;;;;;4.70;4.30;;;26.40;85.50;;;;;;6217157;23;20494;-94
2021/06/30 09:55:29;;;;;;;4.90;4.60;;;26.40;85.60;;;;;;6190660;23;20405;-94
2021/06/30 09:57:56;;;;;;;4.80;4.40;;;26.60;85.80;;;;;;6217071;23;20462;-94
2021/06/30 10:00:26;;;;;;;7.13;4.70;;;26.40;85.80;;;;;;6217717;23;20413;-96
2021/06/30 10:02:53;;;;;;;5.40;4.90;;;26.40;85.80;;;;;;6218244;23;20724;-94
2021/06/30 10:05:31;;;;;;;5.77;5.27;;;26.40;85.20;;;;;;6216779;23;20449;-94
2021/06/30 10:08:10;;;;;;;5.70;5.23;;;26.40;85.20;;;;;;6233523;23;20394;-96
2021/06/30 10:10:40;;;;;;;7.53;6.83;;;26.40;85.10;;;;;;6236570;23;20504;-96
2021/06/30 10:13:07;;;;;;;5.70;5.20;;;26.40;85.20;;;;;;6192498;23;20426;-93
2021/06/30 10:15:34;;;;;;;6.97;6.47;;;26.50;85.30;;;;;;6216251;23;20491;-93
2021/06/30 10:18:04;;;;;;;8.63;7.93;;;26.50;85.30;;;;;;6218689;23;20405;-93
2021/06/30 10:20:31;;;;;;;7.10;6.60;;;26.50;85.40;;;;;;6218641;23;20409;-93
2021/06/30 10:22:58;;;;;;;6.90;6.20;;;26.50;85.60;;;;;;6218331;23;20489;-94
2021/06/30 10:25:25;;;;;;;6.53;6.00;;;26.50;85.80;;;;;;6217779;23;20441;-93
2021/06/30 10:27:55;;;;;;;6.90;6.30;;;26.50;85.80;;;;;;6218220;23;20517;-93
2021/06/30 10:30:22;;;;;;;7.10;6.50;;;26.50;86.00;;;;;;6217948;23;20773;-92
2021/06/30 10:33:01;;;;;;;8.87;7.80;;;26.50;86.00;;;;;;6218285;23;20493;-93
2021/06/30 10:35:28;;;;;;;7.97;7.37;;;26.60;85.10;;;;;;6218000;23;20409;-93
2021/06/30 10:37:57;;;;;;;7.07;6.57;;;26.50;85.00;;;;;;6217870;23;20390;-93
2021/06/30 10:40:24;;;;;;;6.73;6.17;;;26.60;85.30;;;;;;6217867;23;20416;-93
2021/06/30 10:43:10;;;;;;;6.67;6.17;;;26.60;86.30;;;;;;6217661;23;20496;-92
2021/06/30 10:45:37;;;;;;;8.00;6.27;;;26.60;85.60;;;;;;6218006;23;20494;-93
2021/06/30 10:48:06;;;;;;;6.03;5.63;;;26.50;85.70;;;;;;6217714;23;20421;-93
2021/06/30 10:50:35;;;;;;;7.20;6.60;;;26.50;85.20;;;;;;6217690;23;20406;-93
2021/06/30 10:53:38;;;;;;;7.17;6.57;;;26.50;84.80;;;;;;6217798;23;20885;-92
2021/06/30 10:56:10;;;;;;;6.13;5.63;;;26.50;84.10;;;;;;6217606;23;20408;-93
2021/06/30 10:58:42;;;;;;;7.23;6.63;;;26.50;84.70;;;;;;6217631;23;20454;-93
2021/06/30 11:01:15;;;;;;;6.97;6.40;;;26.50;84.70;;;;;;6218366;23;20874;-92
2021/06/30 11:03:50;;;;;;;7.03;6.43;;;26.50;84.60;;;;;;6218007;23;20432;-93
2021/06/30 11:06:25;;;;;;;6.77;6.20;;;26.50;84.60;;;;;;6218226;23;20412;-90
2021/06/30 11:08:55;;;;;;;7.83;7.23;;;26.60;84.80;;;;;;6218570;23;20472;-93
2021/06/30 11:11:54;;;;;;;7.90;7.10;;;26.50;84.20;;;;;;6228017;23;20478;-96
2021/06/30 11:14:44;;;;;;;6.17;5.63;;;26.70;84.40;;;;;;6223913;23;20461;-92
2021/06/30 11:17:12;;;;;;;6.77;6.27;;;26.50;84.50;;;;;;6217632;23;20395;-92
2021/06/30 11:19:49;;;;;;;7.07;6.47;;;26.50;84.70;;;;;;6217500;23;20398;-91
2021/06/30 11:22:27;;;;;;;6.77;6.17;;;26.50;84.60;;;;;;6217248;23;20401;-92
2021/06/30 11:24:54;;;;;;;6.90;6.30;;;26.50;84.60;;;;;;6216831;23;20480;-92
2021/06/30 11:27:43;;;;;;;6.27;5.73;;;26.50;84.70;;;;;;6216934;23;20426;-92
2021/06/30 11:30:13;;;;;;;7.23;6.00;;;26.50;84.70;;;;;;6217340;23;20399;-92
2021/06/30 11:32:48;;;;;;;7.50;6.37;;;26.50;84.80;;;;;;6217491;23;20395;-92
2021/06/30 11:35:34;;;;;;;6.70;5.50;;;26.50;85.00;;;;;;6217348;23;20398;-91
2021/06/30 11:38:11;;;;;;;6.10;5.70;;;26.50;84.90;;;;;;6217534;23;20711;-92
2021/06/30 11:40:40;;;;;;;6.00;5.60;;;26.50;84.90;;;;;;6217054;23;20410;-91
2021/06/30 11:43:16;;;;;;;6.03;5.53;;;26.50;85.20;;;;;;6216792;23;20507;-90
2021/06/30 11:45:45;;;;;;;6.53;5.40;;;26.50;85.00;;;;;;6217303;23;20441;-91
2021/06/30 11:48:14;;;;;;;5.87;5.27;;;26.50;85.00;;;;;;6216620;23;20405;-91
2021/06/30 11:50:47;;;;;;;6.00;5.63;;;26.60;85.10;;;;;;6217150;23;20413;-91
2021/06/30 11:53:14;;;;;;;5.47;5.07;;;26.50;85.10;;;;;;6217625;23;20412;-92
2021/06/30 11:55:42;;;;;;;5.87;5.47;;;26.50;85.00;;;;;;6190385;23;20413;-92
2021/06/30 11:58:10;;;;;;;5.00;4.70;;;26.50;85.00;;;;;;6216990;23;20429;-92
2021/06/30 12:00:42;;;;;;;5.63;5.17;;;26.50;84.90;;;;;;6219891;23;20432;-91
2021/06/30 12:03:11;;;;;;;4.93;4.63;;;26.50;85.00;;;;;;6222598;23;20390;-92
2021/06/30 12:05:40;;;;;;;6.00;5.53;;;26.50;85.10;;;;;;6217005;23;20449;-91
2021/06/30 12:08:09;;;;;;;5.33;4.93;;;26.50;85.20;;;;;;6217037;23;20712;-92
2021/06/30 12:10:38;;;;;;;5.67;4.53;;;26.50;85.10;;;;;;6216836;23;20939;-92
2021/06/30 12:13:10;;;;;;;5.50;4.77;;;26.50;85.20;;;;;;6216470;23;20437;-90
2021/06/30 12:15:42;;;;;;;6.13;4.63;;;26.50;85.20;;;;;;6216884;23;20432;-92
2021/06/30 12:18:11;;;;;;;4.87;3.77;;;26.50;85.20;;;;;;6217165;23;20394;-92
2021/06/30 12:20:38;;;;;;;4.87;4.47;;;26.50;85.40;;;;;;6216814;23;20893;-91
2021/06/30 12:23:06;;;;;;;4.63;4.10;;;26.50;85.30;;;;;;6216995;23;20402;-91
2021/06/30 12:25:34;;;;;;;4.33;3.90;;;26.50;85.40;;;;;;6216851;23;20442;-92
2021/06/30 12:28:04;;;;;;;4.20;3.90;;;26.50;85.20;;;;;;6216674;23;20516;-92
2021/06/30 12:30:33;;;;;;;4.20;3.80;;;26.50;84.50;;;;;;6217213;23;20415;-91
2021/06/30 12:33:02;;;;;;;6.40;3.80;;;26.50;84.30;;;;;;6216452;23;20421;-92
2021/06/30 12:35:32;;;;;;;4.20;3.90;;;26.40;84.30;;;;;;6216890;23;20406;-91
2021/06/30 12:38:00;;;;;;;5.27;4.77;;;26.50;84.80;;;;;;6216312;23;20406;-92
2021/06/30 12:40:27;;;;;;;4.10;3.80;;;26.40;84.90;;;;;;6216281;23;20409;-92
2021/06/30 12:42:57;;;;;;;4.73;3.97;;;26.40;85.00;;;;;;6216682;23;20500;-89
2021/06/30 12:45:36;;;;;;;4.03;3.63;;;26.40;85.10;;;;;;6216212;23;20448;-89
2021/06/30 12:48:05;;;;;;;4.70;4.07;;;26.50;85.20;;;;;;6216253;23;20394;-89
2021/06/30 12:50:38;;;;;;;3.83;3.53;;;26.40;85.20;;;;;;6216216;23;20438;-89
2021/06/30 12:53:08;;;;;;;4.77;4.47;;;26.50;85.20;;;;;;6215850;23;20393;-89
2021/06/30 12:56:00;;;;;;;4.33;3.93;;;26.50;85.30;;;;;;6215616;23;20409;-89
2021/06/30 12:58:39;;;;;;;3.87;3.57;;;26.50;85.20;;;;;;6216074;23;20509;-89